Time;durP1;ratioP1;P1;durP2;ratioP2;P2;SDS_P1;SDS_P2;PMS_P1;PMS_P2;Temp;Humidity;BMP_temperature;BMP_pressure;BME280_temperature;BME280_humidity;BME280_pressure;Samples;Min_cycle;Max_cycle;Signal;HPM_P1;HPM_P2
2021/07/01 00:00:52;;;;;;;;;;;;;;;21.55;56.73;99961.44;2062627;28;19909;-60
2021/07/01 00:02:00;;;;;;;;;;;;;;;21.56;56.71;99957.69;2063513;28;20600;-61
2021/07/01 00:03:01;;;;;;;;;;;;;;;21.55;56.42;99956.81;2061825;28;19975;-61
2021/07/01 00:04:02;;;;;;;;;;;;;;;21.56;56.73;99957.69;2063185;28;20307;-61
2021/07/01 00:05:04;;;;;;;;;;;;;;;21.55;56.67;99961.44;2062277;28;20317;-60
2021/07/01 00:06:04;;;;;;;;;;;;;;;21.57;56.66;99970.34;2062339;28;20142;-61
2021/07/01 00:07:05;;;;;;;;;;;;;;;21.57;56.53;99959.38;2063193;28;20181;-60
2021/07/01 00:08:05;;;;;;;;;;;;;;;21.57;56.50;99954.75;2061341;28;19905;-61
2021/07/01 00:09:06;;;;;;;;;;;;;;;21.57;56.55;99956.66;2062689;28;19909;-61
2021/07/01 00:10:25;;;;;;;;;;;;;;;21.56;56.63;99957.69;2062640;28;19916;-61
2021/07/01 00:11:26;;;;;;;;;;;;;;;21.56;56.80;99952.19;2061960;28;19920;-61
2021/07/01 00:12:26;;;;;;;;;;;;;;;21.56;56.64;99953.06;2062065;28;19920;-60
2021/07/01 00:13:26;;;;;;;;;;;;;;;21.55;56.81;99953.22;2060668;28;20411;-60
2021/07/01 00:14:27;;;;;;;;;;;;;;;21.56;56.59;99949.47;2057947;28;19920;-61
2021/07/01 00:15:29;;;;;;;;;;;;;;;21.56;56.46;99952.19;2060742;28;20369;-61
2021/07/01 00:16:30;;;;;;;;;;;;;;;21.55;56.60;99951.31;2060579;28;19917;-61
2021/07/01 00:17:30;;;;;;;;;;;;;;;21.57;56.56;99953.91;2061748;28;19905;-61
2021/07/01 00:18:30;;;;;;;;;;;;;;;21.56;56.69;99946.72;2060760;28;20011;-62
2021/07/01 00:19:31;;;;;;;;;;;;;;;21.56;56.71;99949.47;2060584;28;19917;-60
2021/07/01 00:20:31;;;;;;;;;;;;;;;21.56;56.48;99943.97;2059926;28;20312;-60
2021/07/01 00:21:31;;;;;;;;;;;;;;;21.56;56.84;99946.72;2062534;28;19910;-60
2021/07/01 00:22:32;;;;;;;;;;;;;;;21.56;56.72;99952.19;2060006;28;19944;-60
2021/07/01 00:23:32;;;;;;;;;;;;;;;21.55;56.86;99950.47;2059367;28;19983;-60
2021/07/01 00:24:32;;;;;;;;;;;;;;;21.54;56.47;99949.63;2060590;28;19915;-61
2021/07/01 00:25:33;;;;;;;;;;;;;;;21.55;56.61;99954.06;2060321;28;20379;-61
2021/07/01 00:26:33;;;;;;;;;;;;;;;21.55;56.73;99945.84;2062498;28;20366;-60
2021/07/01 00:27:33;;;;;;;;;;;;;;;21.55;56.73;99951.31;2060497;28;19913;-60
2021/07/01 00:28:34;;;;;;;;;;;;;;;21.56;56.44;99952.19;2061523;28;19920;-61
2021/07/01 00:29:34;;;;;;;;;;;;;;;21.56;56.68;99952.19;2062042;28;19924;-61
2021/07/01 00:30:34;;;;;;;;;;;;;;;21.56;56.83;99957.69;2061680;28;19966;-61
2021/07/01 00:31:35;;;;;;;;;;;;;;;21.55;56.51;99956.81;2064221;28;20114;-61
2021/07/01 00:32:36;;;;;;;;;;;;;;;21.57;56.81;99951.16;2060923;28;20681;-61
2021/07/01 00:33:36;;;;;;;;;;;;;;;21.56;56.83;99964.03;2063528;28;20835;-62
2021/07/01 00:34:36;;;;;;;;;;;;;;;21.55;56.62;99966.91;2061627;28;20442;-61
2021/07/01 00:35:37;;;;;;;;;;;;;;;21.55;56.79;99962.28;2062006;28;19960;-61
2021/07/01 00:36:37;;;;;;;;;;;;;;;21.56;56.82;99963.16;2053240;28;19921;-61
2021/07/01 00:37:38;;;;;;;;;;;;;;;21.56;56.41;99968.66;2053439;28;19984;-61
2021/07/01 00:38:38;;;;;;;;;;;;;;;21.55;56.60;99955.94;2062248;28;20374;-61
2021/07/01 00:39:39;;;;;;;;;;;;;;;21.55;56.81;99961.44;2060916;28;19914;-61
2021/07/01 00:40:39;;;;;;;;;;;;;;;21.55;56.71;99955.94;2061377;28;19909;-61
2021/07/01 00:41:40;;;;;;;;;;;;;;;21.55;56.61;99955.94;2062177;28;20452;-61
2021/07/01 00:42:40;;;;;;;;;;;;;;;21.54;56.68;99954.25;2062170;28;19913;-61
2021/07/01 00:43:41;;;;;;;;;;;;;;;21.54;56.92;99948.75;2062742;28;20072;-61
2021/07/01 00:44:41;;;;;;;;;;;;;;;21.55;56.83;99962.28;2062066;28;19913;-61
2021/07/01 00:45:41;;;;;;;;;;;;;;;21.54;56.75;99954.25;2062451;28;19920;-61
2021/07/01 00:46:41;;;;;;;;;;;;;;;21.54;56.67;99954.25;2062335;28;19920;-62
2021/07/01 00:47:42;;;;;;;;;;;;;;;21.55;56.52;99953.22;2061058;28;19964;-61
2021/07/01 00:48:43;;;;;;;;;;;;;;;21.55;56.67;99962.28;2062645;28;20269;-61
2021/07/01 00:49:43;;;;;;;;;;;;;;;21.54;56.69;99959.72;2061932;28;20462;-61
2021/07/01 00:50:45;;;;;;;;;;;;;;;21.55;56.58;99950.47;2062375;28;19995;-61
2021/07/01 00:51:45;;;;;;;;;;;;;;;21.54;56.79;99955.09;2061717;28;19913;-61
2021/07/01 00:52:45;;;;;;;;;;;;;;;21.55;56.58;99966.91;2060843;28;19928;-61
2021/07/01 00:53:46;;;;;;;;;;;;;;;21.57;56.67;99967.63;2061240;28;19917;-61
2021/07/01 00:54:46;;;;;;;;;;;;;;;21.55;56.82;99965.03;2064590;28;19915;-63
2021/07/01 00:55:47;;;;;;;;;;;;;;;21.55;56.71;99961.44;2063383;28;19916;-61
2021/07/01 00:56:47;;;;;;;;;;;;;;;21.56;56.57;99963.16;2061750;28;19913;-61
2021/07/01 00:57:48;;;;;;;;;;;;;;;21.55;56.73;99964.19;2062003;28;19909;-62
2021/07/01 00:58:52;;;;;;;;;;;;;;;21.56;56.81;99957.69;2062170;28;20765;-61
2021/07/01 00:59:52;;;;;;;;;;;;;;;21.56;56.56;99952.19;2062195;28;19913;-61
2021/07/01 01:01:02;;;;;;;;;;;;;;;21.55;56.77;99956.81;2062099;28;19955;-61
2021/07/01 01:02:02;;;;;;;;;;;;;;;21.55;56.58;99956.81;2062377;28;19913;-61
2021/07/01 01:03:03;;;;;;;;;;;;;;;21.56;56.79;99957.69;2056676;28;19922;-61
2021/07/01 01:04:03;;;;;;;;;;;;;;;21.55;56.67;99954.06;2060240;28;20302;-61
2021/07/01 01:05:04;;;;;;;;;;;;;;;21.54;56.78;99952.34;2058141;28;20518;-61
2021/07/01 01:06:06;;;;;;;;;;;;;;;21.54;56.67;99951.50;2062484;28;19909;-61
2021/07/01 01:07:06;;;;;;;;;;;;;;;21.54;56.39;99959.72;2061389;28;19909;-61
2021/07/01 01:08:06;;;;;;;;;;;;;;;21.54;56.76;99948.75;2062638;28;20395;-61
2021/07/01 01:09:09;;;;;;;;;;;;;;;21.52;56.87;99957.16;2061840;28;19913;-61
2021/07/01 01:10:09;;;;;;;;;;;;;;;21.53;56.60;99958.00;2062238;28;19913;-61
2021/07/01 01:11:09;;;;;;;;;;;;;;;21.54;56.55;99954.25;2060861;28;19940;-61
2021/07/01 01:12:10;;;;;;;;;;;;;;;21.53;56.51;99958.00;2062373;28;19914;-61
2021/07/01 01:13:10;;;;;;;;;;;;;;;21.54;56.79;99954.25;2061782;28;19906;-61
2021/07/01 01:14:11;;;;;;;;;;;;;;;21.53;56.61;99960.75;2062299;28;19913;-61
2021/07/01 01:15:11;;;;;;;;;;;;;;;21.53;56.63;99964.34;2062055;28;20662;-61
2021/07/01 01:16:11;;;;;;;;;;;;;;;21.54;56.51;99959.72;2062392;28;19913;-61
2021/07/01 01:17:12;;;;;;;;;;;;;;;21.55;56.59;99972.41;2061861;28;19984;-61
2021/07/01 01:18:12;;;;;;;;;;;;;;;21.55;56.47;99966.91;2061845;28;19917;-61
2021/07/01 01:19:12;;;;;;;;;;;;;;;21.55;56.71;99969.66;2061833;28;19917;-61
2021/07/01 01:20:14;;;;;;;;;;;;;;;21.55;56.68;99961.44;2061146;28;20331;-61
2021/07/01 01:21:15;;;;;;;;;;;;;;;21.54;56.76;99959.72;2063693;28;19913;-61
2021/07/01 01:22:15;;;;;;;;;;;;;;;21.54;56.53;99965.22;2060352;28;20000;-61
2021/07/01 01:23:15;;;;;;;;;;;;;;;21.54;56.90;99967.97;2061800;28;20124;-61
2021/07/01 01:24:16;;;;;;;;;;;;;;;21.54;56.66;99970.69;2062221;28;19905;-61
2021/07/01 01:25:16;;;;;;;;;;;;;;;21.54;56.54;99967.97;2061904;28;19948;-61
2021/07/01 01:26:17;;;;;;;;;;;;;;;21.53;56.56;99958.00;2062182;28;19908;-61
2021/07/01 01:27:18;;;;;;;;;;;;;;;21.53;56.61;99968.97;2060486;28;19956;-62
2021/07/01 01:28:18;;;;;;;;;;;;;;;21.53;56.48;99960.75;2062072;28;19921;-62
2021/07/01 01:29:19;;;;;;;;;;;;;;;21.53;56.83;99958.00;2061590;28;20256;-62
2021/07/01 01:30:20;;;;;;;;;;;;;;;21.52;56.52;99950.81;2058773;28;20074;-62
2021/07/01 01:31:20;;;;;;;;;;;;;;;21.54;56.75;99959.72;2061833;28;19928;-61
2021/07/01 01:32:21;;;;;;;;;;;;;;;21.52;56.64;99956.28;2062345;28;19944;-62
2021/07/01 01:33:21;;;;;;;;;;;;;;;21.51;56.55;99963.69;2061270;28;20434;-61
2021/07/01 01:34:22;;;;;;;;;;;;;;;21.53;56.90;99952.50;2062332;28;19921;-61
2021/07/01 01:35:22;;;;;;;;;;;;;;;21.52;56.64;99956.28;2061790;28;20261;-61
2021/07/01 01:36:22;;;;;;;;;;;;;;;21.53;56.77;99952.50;2061305;28;19905;-61
2021/07/01 01:37:22;;;;;;;;;;;;;;;21.52;56.69;99951.66;2058442;28;19910;-61
2021/07/01 01:38:23;;;;;;;;;;;;;;;21.52;56.56;99957.16;2059648;28;19913;-61
2021/07/01 01:39:23;;;;;;;;;;;;;;;21.53;56.60;99953.38;2061902;28;19921;-62
2021/07/01 01:40:23;;;;;;;;;;;;;;;21.52;56.48;99957.16;2061445;28;20415;-61
2021/07/01 01:41:24;;;;;;;;;;;;;;;21.52;56.81;99950.81;2061317;28;19932;-61
2021/07/01 01:42:25;;;;;;;;;;;;;;;21.51;56.41;99949.97;2062487;28;19974;-61
2021/07/01 01:43:25;;;;;;;;;;;;;;;21.52;56.68;99956.28;2059482;28;20422;-62
2021/07/01 01:44:25;;;;;;;;;;;;;;;21.53;56.71;99952.50;2061560;28;19913;-61
2021/07/01 01:45:25;;;;;;;;;;;;;;;21.52;56.57;99961.78;2061821;28;19913;-61
2021/07/01 01:46:33;;;;;;;;;;;;;;;21.52;56.87;99950.81;2061944;28;19917;-61
2021/07/01 01:47:33;;;;;;;;;;;;;;;21.51;56.56;99960.94;2054408;28;20448;-61
2021/07/01 01:48:34;;;;;;;;;;;;;;;21.52;56.72;99951.66;2060185;28;20426;-61
2021/07/01 01:49:34;;;;;;;;;;;;;;;21.51;56.79;99954.56;2062123;28;20352;-61
2021/07/01 01:50:34;;;;;;;;;;;;;;;21.50;56.58;99952.88;2061918;28;20311;-61
2021/07/01 01:51:35;;;;;;;;;;;;;;;21.51;56.72;99957.31;2061835;28;20651;-61
2021/07/01 01:52:35;;;;;;;;;;;;;;;21.53;56.50;99952.50;2053610;28;19914;-61
2021/07/01 01:53:36;;;;;;;;;;;;;;;21.51;56.63;99954.56;2052432;28;20017;-62
2021/07/01 01:54:36;;;;;;;;;;;;;;;21.52;56.65;99948.06;2062158;28;19960;-61
2021/07/01 01:55:37;;;;;;;;;;;;;;;21.52;56.65;99945.31;2061304;28;20024;-61
2021/07/01 01:56:45;;;;;;;;;;;;;;;21.50;56.78;99941.88;2061045;28;20004;-61
2021/07/01 01:57:46;;;;;;;;;;;;;;;21.50;56.80;99939.16;2062157;28;19914;-61
2021/07/01 01:58:47;;;;;;;;;;;;;;;21.50;56.55;99941.88;2059962;28;20057;-61
2021/07/01 01:59:47;;;;;;;;;;;;;;;21.52;56.59;99942.59;2060411;28;19992;-61
2021/07/01 02:00:48;;;;;;;;;;;;;;;21.51;56.60;99938.09;2061019;28;19913;-61
2021/07/01 02:01:48;;;;;;;;;;;;;;;21.52;56.76;99934.34;2060030;28;19913;-61
2021/07/01 02:02:48;;;;;;;;;;;;;;;21.50;56.49;99931.78;2061818;28;19924;-61
2021/07/01 02:03:49;;;;;;;;;;;;;;;21.51;56.67;99933.50;2062589;28;19905;-62
2021/07/01 02:04:49;;;;;;;;;;;;;;;21.51;56.54;99932.63;2061490;28;19948;-61
2021/07/01 02:05:49;;;;;;;;;;;;;;;21.51;56.61;99933.50;2062120;28;19905;-61
2021/07/01 02:06:50;;;;;;;;;;;;;;;21.51;56.52;99939.00;2061450;28;19920;-61
2021/07/01 02:07:50;;;;;;;;;;;;;;;21.50;56.69;99936.41;2061520;28;19914;-61
2021/07/01 02:08:51;;;;;;;;;;;;;;;21.51;56.70;99938.09;2061717;28;20017;-61
2021/07/01 02:09:51;;;;;;;;;;;;;;;21.51;56.49;99929.88;2061731;28;20604;-61
2021/07/01 02:10:51;;;;;;;;;;;;;;;21.51;56.58;99933.50;2053043;28;19910;-61
2021/07/01 02:11:52;;;;;;;;;;;;;;;21.52;56.46;99934.34;2053405;28;19920;-62
2021/07/01 02:12:52;;;;;;;;;;;;;;;21.52;56.55;99939.84;2056909;28;19949;-61
2021/07/01 02:13:53;;;;;;;;;;;;;;;21.51;56.53;99932.63;2061256;28;20004;-61
2021/07/01 02:14:53;;;;;;;;;;;;;;;21.50;56.46;99936.41;2052942;28;20549;-61
2021/07/01 02:15:53;;;;;;;;;;;;;;;21.49;56.77;99930.06;2052843;28;19956;-61
2021/07/01 02:16:55;;;;;;;;;;;;;;;21.50;56.74;99925.44;2061546;28;20220;-61
2021/07/01 02:17:56;;;;;;;;;;;;;;;21.50;56.45;99926.28;2062523;28;20012;-61
2021/07/01 02:18:56;;;;;;;;;;;;;;;21.49;56.79;99924.59;2053093;28;20420;-61
2021/07/01 02:19:56;;;;;;;;;;;;;;;21.49;56.65;99935.56;2056246;28;19913;-61
2021/07/01 02:20:56;;;;;;;;;;;;;;;21.50;56.49;99936.41;2061739;28;19914;-61
2021/07/01 02:21:57;;;;;;;;;;;;;;;21.48;56.69;99927.47;2062730;28;19992;-61
2021/07/01 02:22:57;;;;;;;;;;;;;;;21.49;56.59;99931.97;2063354;28;19909;-61
2021/07/01 02:23:58;;;;;;;;;;;;;;;21.49;56.63;99927.31;2063667;28;19917;-61
2021/07/01 02:24:58;;;;;;;;;;;;;;;21.49;56.49;99930.06;2063471;28;20392;-61
2021/07/01 02:25:58;;;;;;;;;;;;;;;21.47;56.66;99926.63;2063657;28;20455;-61
2021/07/01 02:26:59;;;;;;;;;;;;;;;21.47;56.75;99925.78;2062924;28;19917;-61
2021/07/01 02:27:59;;;;;;;;;;;;;;;21.49;56.49;99923.72;2063174;28;19912;-61
2021/07/01 02:29:00;;;;;;;;;;;;;;;21.48;56.46;99922.84;2063383;28;19944;-61
2021/07/01 02:30:00;;;;;;;;;;;;;;;21.49;56.46;99923.72;2063012;28;19975;-61
2021/07/01 02:31:01;;;;;;;;;;;;;;;21.49;56.56;99927.31;2063508;28;19913;-61
2021/07/01 02:32:02;;;;;;;;;;;;;;;21.49;56.39;99918.25;2063646;28;19906;-61
2021/07/01 02:33:02;;;;;;;;;;;;;;;21.49;56.67;99924.59;2062669;28;19920;-61
2021/07/01 02:34:02;;;;;;;;;;;;;;;21.47;56.53;99921.16;2061766;28;20364;-61
2021/07/01 02:35:03;;;;;;;;;;;;;;;21.47;56.45;99914.81;2063661;28;19960;-61
2021/07/01 02:36:04;;;;;;;;;;;;;;;21.47;56.64;99923.03;2062832;28;19914;-61
2021/07/01 02:37:04;;;;;;;;;;;;;;;21.48;56.57;99924.75;2062344;28;20493;-61
2021/07/01 02:38:04;;;;;;;;;;;;;;;21.48;56.38;99922.84;2055629;28;19948;-62
2021/07/01 02:39:07;;;;;;;;;;;;;;;21.47;56.69;99921.16;2052978;28;19918;-61
2021/07/01 02:40:14;;;;;;;;;;;;;;;21.48;56.60;99922.84;2062623;28;19917;-61
2021/07/01 02:41:14;;;;;;;;;;;;;;;21.47;56.60;99918.41;2063010;28;19922;-61
2021/07/01 02:42:14;;;;;;;;;;;;;;;21.46;56.49;99924.06;2061293;28;19920;-61
2021/07/01 02:43:15;;;;;;;;;;;;;;;21.48;56.66;99916.53;2062992;28;20701;-62
2021/07/01 02:44:15;;;;;;;;;;;;;;;21.46;56.67;99918.56;2063090;28;20008;-61
2021/07/01 02:45:16;;;;;;;;;;;;;;;21.49;56.57;99923.72;2060455;28;19913;-61
2021/07/01 02:46:16;;;;;;;;;;;;;;;21.46;56.43;99919.44;2063290;28;20024;-61
2021/07/01 02:47:16;;;;;;;;;;;;;;;21.46;56.70;99918.56;2063183;28;20234;-61
2021/07/01 02:48:16;;;;;;;;;;;;;;;21.46;56.62;99924.06;2061932;28;19906;-61
2021/07/01 02:49:17;;;;;;;;;;;;;;;21.48;56.48;99927.47;2062995;28;19914;-61
2021/07/01 02:50:17;;;;;;;;;;;;;;;21.48;56.26;99916.53;2062775;28;19913;-61
2021/07/01 02:51:17;;;;;;;;;;;;;;;21.47;56.60;99914.81;2058166;28;19929;-61
2021/07/01 02:52:18;;;;;;;;;;;;;;;21.46;56.65;99921.31;2062356;28;20581;-61
2021/07/01 02:53:18;;;;;;;;;;;;;;;21.46;56.36;99919.44;2063163;28;20589;-61
2021/07/01 02:54:19;;;;;;;;;;;;;;;21.47;56.61;99925.78;2063102;28;19917;-61
2021/07/01 02:55:20;;;;;;;;;;;;;;;21.45;56.68;99916.88;2063216;28;19948;-61
2021/07/01 02:56:21;;;;;;;;;;;;;;;21.46;56.35;99919.44;2062970;28;19936;-61
2021/07/01 02:57:21;;;;;;;;;;;;;;;21.46;56.35;99918.56;2061466;28;19914;-61
2021/07/01 02:58:22;;;;;;;;;;;;;;;21.46;56.49;99918.56;2062808;28;20004;-61
2021/07/01 02:59:22;;;;;;;;;;;;;;;21.47;56.42;99926.63;2062919;28;19929;-62
2021/07/01 03:00:22;;;;;;;;;;;;;;;21.46;56.29;99930.41;2063408;28;19913;-61
2021/07/01 03:01:22;;;;;;;;;;;;;;;21.49;56.40;99923.72;2062839;28;19910;-61
2021/07/01 03:02:23;;;;;;;;;;;;;;;21.46;56.45;99924.94;2062925;28;20396;-62
2021/07/01 03:03:23;;;;;;;;;;;;;;;21.47;56.59;99925.78;2063649;28;20676;-61
2021/07/01 03:04:23;;;;;;;;;;;;;;;21.47;56.64;99929.38;2062021;28;20436;-61
2021/07/01 03:05:24;;;;;;;;;;;;;;;21.47;56.44;99931.28;2063647;28;19913;-61
2021/07/01 03:06:24;;;;;;;;;;;;;;;21.47;56.45;99928.53;2062773;28;20466;-61
2021/07/01 03:07:25;;;;;;;;;;;;;;;21.47;56.25;99925.78;2063641;28;19913;-61
2021/07/01 03:08:25;;;;;;;;;;;;;;;21.48;56.52;99930.22;2061304;28;19936;-61
2021/07/01 03:09:25;;;;;;;;;;;;;;;21.47;56.49;99934.00;2062370;28;19975;-61
2021/07/01 03:10:26;;;;;;;;;;;;;;;21.47;56.54;99932.13;2063343;28;19913;-61
2021/07/01 03:11:26;;;;;;;;;;;;;;;21.48;56.32;99932.97;2062856;28;20534;-61
2021/07/01 03:12:26;;;;;;;;;;;;;;;21.47;56.14;99925.78;2063173;28;20345;-61
2021/07/01 03:13:26;;;;;;;;;;;;;;;21.49;56.47;99923.72;2062853;28;19921;-61
2021/07/01 03:14:27;;;;;;;;;;;;;;;21.47;56.46;99921.16;2055408;28;20233;-61
2021/07/01 03:15:27;;;;;;;;;;;;;;;21.49;56.62;99918.25;2054441;28;20025;-61
2021/07/01 03:16:27;;;;;;;;;;;;;;;21.47;56.26;99915.66;2062761;28;19975;-61
2021/07/01 03:17:28;;;;;;;;;;;;;;;21.48;56.51;99916.53;2063279;28;20014;-61
2021/07/01 03:18:28;;;;;;;;;;;;;;;21.47;56.40;99914.81;2062817;28;19920;-61
2021/07/01 03:19:28;;;;;;;;;;;;;;;21.46;56.51;99913.97;2063033;28;19917;-61
2021/07/01 03:20:28;;;;;;;;;;;;;;;21.46;56.54;99919.44;2062933;28;19913;-61
2021/07/01 03:21:29;;;;;;;;;;;;;;;21.47;56.51;99920.31;2054782;28;19960;-61
2021/07/01 03:22:29;;;;;;;;;;;;;;;21.46;56.41;99921.31;2053668;28;20263;-61
2021/07/01 03:23:29;;;;;;;;;;;;;;;21.47;56.46;99923.03;2063572;28;19914;-61
2021/07/01 03:24:30;;;;;;;;;;;;;;;21.46;56.17;99918.56;2061887;28;20035;-61
2021/07/01 03:25:30;;;;;;;;;;;;;;;21.46;56.16;99927.69;2062764;28;19948;-61
2021/07/01 03:26:30;;;;;;;;;;;;;;;21.47;56.22;99925.78;2063462;28;19913;-61
2021/07/01 03:27:31;;;;;;;;;;;;;;;21.48;56.43;99927.47;2061939;28;20011;-61
2021/07/01 03:28:31;;;;;;;;;;;;;;;21.48;56.29;99927.47;2063765;28;19913;-61
2021/07/01 03:29:32;;;;;;;;;;;;;;;21.47;56.41;99931.28;2062502;28;19952;-61
2021/07/01 03:30:32;;;;;;;;;;;;;;;21.48;56.27;99927.47;2061794;28;20511;-61
2021/07/01 03:31:32;;;;;;;;;;;;;;;21.46;56.27;99924.06;2062116;28;19920;-61
2021/07/01 03:32:33;;;;;;;;;;;;;;;21.46;56.59;99926.78;2062097;28;19921;-60
2021/07/01 03:33:33;;;;;;;;;;;;;;;21.46;56.17;99924.06;2063671;28;19920;-60
2021/07/01 03:34:34;;;;;;;;;;;;;;;21.47;56.28;99926.63;2061939;28;19913;-60
2021/07/01 03:35:34;;;;;;;;;;;;;;;21.46;56.21;99932.28;2063037;28;19981;-60
2021/07/01 03:36:34;;;;;;;;;;;;;;;21.45;56.38;99928.69;2062561;28;19913;-60
2021/07/01 03:37:34;;;;;;;;;;;;;;;21.45;56.58;99923.19;2062638;28;19914;-60
2021/07/01 03:38:36;;;;;;;;;;;;;;;21.47;56.14;99925.78;2063167;28;19963;-60
2021/07/01 03:39:36;;;;;;;;;;;;;;;21.45;56.44;99922.34;2062659;28;19921;-60
2021/07/01 03:40:36;;;;;;;;;;;;;;;21.45;56.14;99925.09;2063586;28;19913;-60
2021/07/01 03:41:37;;;;;;;;;;;;;;;21.44;56.39;99921.50;2061208;28;19921;-60
2021/07/01 03:42:38;;;;;;;;;;;;;;;21.44;56.23;99921.50;2054468;28;19909;-60
2021/07/01 03:43:45;;;;;;;;;;;;;;;21.46;56.43;99929.53;2054997;28;20383;-60
2021/07/01 03:44:46;;;;;;;;;;;;;;;21.46;56.27;99929.53;2062621;28;20643;-60
2021/07/01 03:45:46;;;;;;;;;;;;;;;21.45;56.18;99925.09;2063103;28;19913;-60
2021/07/01 03:46:46;;;;;;;;;;;;;;;21.46;56.30;99929.53;2062933;28;19913;-60
2021/07/01 03:47:47;;;;;;;;;;;;;;;21.45;56.27;99933.31;2062187;28;19909;-60
2021/07/01 03:48:47;;;;;;;;;;;;;;;21.46;56.49;99929.53;2063430;28;19906;-60
2021/07/01 03:49:47;;;;;;;;;;;;;;;21.46;56.12;99921.31;2062101;28;19914;-61
2021/07/01 03:50:47;;;;;;;;;;;;;;;21.45;56.23;99925.09;2062254;28;19919;-60
2021/07/01 03:51:48;;;;;;;;;;;;;;;21.45;56.34;99927.84;2063201;28;19936;-60
2021/07/01 03:52:48;;;;;;;;;;;;;;;21.45;56.06;99927.84;2061433;28;20336;-60
2021/07/01 03:53:48;;;;;;;;;;;;;;;21.45;56.33;99927.84;2063011;28;19914;-60
2021/07/01 03:54:49;;;;;;;;;;;;;;;21.44;56.14;99926.97;2062159;28;19917;-60
2021/07/01 03:55:49;;;;;;;;;;;;;;;21.45;56.36;99933.31;2063281;28;19905;-62
2021/07/01 03:56:49;;;;;;;;;;;;;;;21.45;56.38;99925.09;2063121;28;19917;-60
2021/07/01 03:57:50;;;;;;;;;;;;;;;21.43;56.20;99922.50;2054016;28;19954;-60
2021/07/01 03:58:50;;;;;;;;;;;;;;;21.44;56.11;99923.38;2053988;28;19953;-60
2021/07/01 03:59:50;;;;;;;;;;;;;;;21.44;56.30;99926.97;2054247;28;19914;-60
2021/07/01 04:00:51;;;;;;;;;;;;;;;21.43;56.26;99924.41;2053942;28;20490;-60
2021/07/01 04:01:51;;;;;;;;;;;;;;;21.44;56.15;99926.97;2062731;28;20046;-60
2021/07/01 04:02:51;;;;;;;;;;;;;;;21.45;56.23;99923.19;2062781;28;19906;-61
2021/07/01 04:03:51;;;;;;;;;;;;;;;21.46;56.30;99929.53;2062879;28;19913;-60
2021/07/01 04:04:52;;;;;;;;;;;;;;;21.45;56.23;99927.84;2061739;28;19913;-60
2021/07/01 04:05:52;;;;;;;;;;;;;;;21.45;56.12;99933.31;2062241;28;19914;-60
2021/07/01 04:06:52;;;;;;;;;;;;;;;21.43;56.22;99929.88;2062341;28;20308;-60
2021/07/01 04:07:53;;;;;;;;;;;;;;;21.43;56.22;99932.63;2062801;28;20015;-61
2021/07/01 04:08:53;;;;;;;;;;;;;;;21.44;56.22;99934.34;2063054;28;19905;-60
2021/07/01 04:09:53;;;;;;;;;;;;;;;21.44;56.45;99928.88;2061984;28;20612;-60
2021/07/01 04:10:54;;;;;;;;;;;;;;;21.43;56.31;99929.88;2063575;28;20293;-60
2021/07/01 04:11:54;;;;;;;;;;;;;;;21.44;56.36;99937.09;2061899;28;20747;-60
2021/07/01 04:12:54;;;;;;;;;;;;;;;21.43;56.22;99927.13;2062377;28;19913;-60
2021/07/01 04:13:55;;;;;;;;;;;;;;;21.44;56.28;99931.63;2062769;28;19913;-60
2021/07/01 04:14:55;;;;;;;;;;;;;;;21.44;56.23;99937.09;2062730;28;20007;-63
2021/07/01 04:15:55;;;;;;;;;;;;;;;21.45;56.14;99933.31;2061939;28;19909;-60
2021/07/01 04:16:56;;;;;;;;;;;;;;;21.44;55.95;99932.47;2063225;28;19971;-60
2021/07/01 04:17:56;;;;;;;;;;;;;;;21.44;56.07;99931.63;2064944;28;19920;-60
2021/07/01 04:18:56;;;;;;;;;;;;;;;21.45;55.99;99938.81;2062635;28;19905;-60
2021/07/01 04:19:57;;;;;;;;;;;;;;;21.44;56.20;99928.88;2062421;28;19913;-60
2021/07/01 04:20:57;;;;;;;;;;;;;;;21.44;56.16;99931.63;2062572;28;20384;-60
2021/07/01 04:21:57;;;;;;;;;;;;;;;21.44;56.24;99937.09;2062209;28;19920;-61
2021/07/01 04:22:57;;;;;;;;;;;;;;;21.44;56.03;99942.59;2062398;28;19966;-60
2021/07/01 04:23:58;;;;;;;;;;;;;;;21.44;56.04;99948.06;2061754;28;20007;-60
2021/07/01 04:24:58;;;;;;;;;;;;;;;21.44;56.16;99948.06;2061335;28;19921;-60
2021/07/01 04:25:59;;;;;;;;;;;;;;;21.43;56.09;99935.38;2062967;28;20069;-60
2021/07/01 04:26:59;;;;;;;;;;;;;;;21.46;55.87;99946.00;2062713;28;20514;-60
2021/07/01 04:28:00;;;;;;;;;;;;;;;21.45;55.81;99933.31;2061643;28;19909;-60
2021/07/01 04:29:00;;;;;;;;;;;;;;;21.44;55.86;99950.81;2063110;28;19936;-60
2021/07/01 04:30:00;;;;;;;;;;;;;;;21.43;55.90;99947.19;2062090;28;19921;-60
2021/07/01 04:31:02;;;;;;;;;;;;;;;21.43;55.92;99936.22;2063269;28;19914;-60
2021/07/01 04:32:03;;;;;;;;;;;;;;;21.43;55.88;99946.34;2063423;28;19923;-60
2021/07/01 04:33:03;;;;;;;;;;;;;;;21.42;55.91;99940.00;2062309;28;19917;-60
2021/07/01 04:34:07;;;;;;;;;;;;;;;21.44;56.02;99942.59;2063264;28;19975;-60
2021/07/01 04:35:07;;;;;;;;;;;;;;;21.44;55.81;99945.31;2060340;28;19920;-60
2021/07/01 04:36:08;;;;;;;;;;;;;;;21.42;56.00;99940.00;2058788;28;20359;-60
2021/07/01 04:37:08;;;;;;;;;;;;;;;21.43;56.13;99946.34;2062663;28;19920;-60
2021/07/01 04:38:08;;;;;;;;;;;;;;;21.44;56.22;99948.91;2061873;28;19913;-60
2021/07/01 04:39:09;;;;;;;;;;;;;;;21.42;56.23;99942.75;2062947;28;19917;-61
2021/07/01 04:40:10;;;;;;;;;;;;;;;21.43;56.00;99946.34;2061969;28;19924;-61
2021/07/01 04:41:10;;;;;;;;;;;;;;;21.43;55.89;99951.81;2062541;28;20378;-61
2021/07/01 04:42:11;;;;;;;;;;;;;;;21.42;55.83;99942.75;2061252;28;19936;-60
2021/07/01 04:43:11;;;;;;;;;;;;;;;21.43;55.97;99943.59;2053469;28;20218;-61
2021/07/01 04:44:12;;;;;;;;;;;;;;;21.42;55.97;99942.75;2052368;28;20403;-60
2021/07/01 04:45:13;;;;;;;;;;;;;;;21.42;56.04;99947.38;2061890;28;19913;-60
2021/07/01 04:46:13;;;;;;;;;;;;;;;21.42;56.24;99944.63;2062575;28;19909;-60
2021/07/01 04:47:14;;;;;;;;;;;;;;;21.42;55.89;99947.38;2062040;28;19914;-60
2021/07/01 04:48:14;;;;;;;;;;;;;;;21.42;55.92;99940.00;2062682;28;19979;-61
2021/07/01 04:49:14;;;;;;;;;;;;;;;21.43;55.87;99951.81;2062083;28;19921;-61
2021/07/01 04:50:15;;;;;;;;;;;;;;;21.43;56.09;99941.69;2061064;28;20049;-60
2021/07/01 04:51:15;;;;;;;;;;;;;;;21.43;55.68;99949.06;2055935;28;20276;-61
2021/07/01 04:52:15;;;;;;;;;;;;;;;21.44;55.69;99937.94;2060308;28;19995;-61
2021/07/01 04:53:16;;;;;;;;;;;;;;;21.43;55.98;99946.34;2062145;28;19915;-61
2021/07/01 04:54:16;;;;;;;;;;;;;;;21.40;56.10;99942.91;2061824;28;19920;-61
2021/07/01 04:55:16;;;;;;;;;;;;;;;21.41;56.01;99938.25;2062367;28;19913;-61
2021/07/01 04:56:17;;;;;;;;;;;;;;;21.41;56.04;99938.25;2062281;28;19917;-62
2021/07/01 04:57:17;;;;;;;;;;;;;;;21.42;56.00;99939.16;2062005;28;19908;-61
2021/07/01 04:58:17;;;;;;;;;;;;;;;21.40;55.93;99942.03;2054304;28;19913;-61
2021/07/01 04:59:19;;;;;;;;;;;;;;;21.41;56.04;99941.00;2062855;28;19960;-61
2021/07/01 05:00:19;;;;;;;;;;;;;;;21.41;55.97;99935.53;2062388;28;20277;-61
2021/07/01 05:01:19;;;;;;;;;;;;;;;21.42;56.07;99933.66;2063150;28;19905;-61
2021/07/01 05:02:20;;;;;;;;;;;;;;;21.41;55.94;99932.78;2062239;28;19960;-61
2021/07/01 05:03:20;;;;;;;;;;;;;;;21.42;56.02;99933.66;2060771;28;19953;-61
2021/07/01 05:04:20;;;;;;;;;;;;;;;21.43;55.85;99940.84;2062083;28;20107;-61
2021/07/01 05:05:21;;;;;;;;;;;;;;;21.43;56.06;99932.63;2061831;28;19905;-61
2021/07/01 05:06:21;;;;;;;;;;;;;;;21.41;55.83;99932.78;2061806;28;19948;-61
2021/07/01 05:07:21;;;;;;;;;;;;;;;21.43;55.99;99929.88;2061998;28;20108;-61
2021/07/01 05:08:22;;;;;;;;;;;;;;;21.42;55.72;99933.66;2062578;28;20447;-61
2021/07/01 05:09:22;;;;;;;;;;;;;;;21.40;55.99;99929.19;2061828;28;19917;-61
2021/07/01 05:10:22;;;;;;;;;;;;;;;21.40;55.93;99940.16;2053600;28;19913;-61
2021/07/01 05:11:23;;;;;;;;;;;;;;;21.40;56.15;99942.91;2055671;28;19910;-61
2021/07/01 05:12:23;;;;;;;;;;;;;;;21.40;55.83;99937.41;2062641;28;19948;-61
2021/07/01 05:13:23;;;;;;;;;;;;;;;21.42;55.82;99934.50;2061736;28;19975;-61
2021/07/01 05:14:24;;;;;;;;;;;;;;;21.41;56.01;99932.78;2062153;28;20608;-61
2021/07/01 05:15:24;;;;;;;;;;;;;;;21.42;55.95;99939.16;2055590;28;20365;-61
2021/07/01 05:16:27;;;;;;;;;;;;;;;21.40;55.97;99937.41;2062167;28;19913;-61